Portada
METAR-TAF:

METAR-TAF

Aeroports :

Mar del Plata, Argentina

latitud: 37-56S, longitud: 057-35W, altitud: 18 m

Observació

L'informe es va fer fa 21 minuts, a les 07:00 UTC
Vent 2 kt del Oest/Nord-Oest
Temperatura 7°C
Humitat 100%
Pressió 1021 hPa
Visibilitat: 0400 m
boira en bancs

METAR: SAZM 200700Z 30002KT 0400 R13/1000 BCFG NSC 07/07 Q1021

Hora: 04:21 (07:21 UTC)

Pronòstic

L'informe es va fer fa 2 hores i 21 minuts, a les 05:00 UTC
Pronòstic vàlid del 20 a les 06 UTC al 21 a les 06 UTC
Vent 5 kt del Oest/Nord-Oest
Visibilitat: 5000 m
boirina
Probabilitat 40% :
Temporalment
l' 20 a les 07 UTC al 20 a les 10 UTC
Visibilitat: 0800 m
boira
Evolucionant progressivament
l' 20 a les 12 UTC al 20 a les 15 UTC
Vent 15 kt del Est/Nord-Est
Visibilitat 10 km o més
Núvols disperses a una alçada de 2500 ft
Núvols disperses a una alçada de 3000 ft

TAF: SAZM 200500Z 2006/2106 30005KT 5000 BR NSC TX20/2018Z TN07/2010Z PROB40 TEMPO 2007/2010 0800 FG BECMG 2012/2015 07015KT 9999 SCT025 SCT030

Observacions i pronòstics meteorològics de més de 4000 aeroports (METAR i TAF).

Les estacions disponibles són els punts grocs i vermells al mapa.

Posi el ratolí al punt desitjat per veure el nom de l'estació.

Feu clic per veure les observacions i els pronòstics meteorològics.

Per canviar el mapa: feu clic els botons verds amb una creu de color negre per apropar; al botó verd amb un guió per allunyar la imatge; o en les fletxes verdes per a mapes adjacents.


METAR-TAF: